sensor_id;sensor_type;location;lat;lon;timestamp;P1;durP1;ratioP1;P2;durP2;ratioP2
22812;SDS011;11573;51.334;3.244;2023-05-19T00:01:12;11.50;;;7.95;;
22812;SDS011;11573;51.334;3.244;2023-05-19T00:03:50;18.98;;;8.88;;
22812;SDS011;11573;51.334;3.244;2023-05-19T00:06:22;19.25;;;7.72;;
22812;SDS011;11573;51.334;3.244;2023-05-19T00:09:00;22.52;;;8.32;;
22812;SDS011;11573;51.334;3.244;2023-05-19T00:11:29;24.17;;;9.10;;
22812;SDS011;11573;51.334;3.244;2023-05-19T00:13:57;23.90;;;9.23;;
22812;SDS011;11573;51.334;3.244;2023-05-19T00:16:25;26.33;;;8.23;;
22812;SDS011;11573;51.334;3.244;2023-05-19T00:18:53;19.63;;;8.25;;
22812;SDS011;11573;51.334;3.244;2023-05-19T00:21:22;27.65;;;9.35;;
22812;SDS011;11573;51.334;3.244;2023-05-19T00:23:49;18.13;;;8.60;;
22812;SDS011;11573;51.334;3.244;2023-05-19T00:26:16;22.55;;;8.93;;
22812;SDS011;11573;51.334;3.244;2023-05-19T00:28:53;19.75;;;8.18;;
22812;SDS011;11573;51.334;3.244;2023-05-19T00:31:20;20.55;;;9.30;;
22812;SDS011;11573;51.334;3.244;2023-05-19T00:33:47;26.13;;;8.60;;
22812;SDS011;11573;51.334;3.244;2023-05-19T00:36:14;26.55;;;9.65;;
22812;SDS011;11573;51.334;3.244;2023-05-19T00:38:41;17.63;;;8.13;;
22812;SDS011;11573;51.334;3.244;2023-05-19T00:41:08;19.95;;;8.88;;
22812;SDS011;11573;51.334;3.244;2023-05-19T00:43:36;17.70;;;9.00;;
22812;SDS011;11573;51.334;3.244;2023-05-19T00:46:03;25.27;;;9.90;;
22812;SDS011;11573;51.334;3.244;2023-05-19T00:48:30;22.13;;;9.57;;
22812;SDS011;11573;51.334;3.244;2023-05-19T00:50:57;20.27;;;9.73;;
22812;SDS011;11573;51.334;3.244;2023-05-19T00:53:30;26.40;;;9.68;;
22812;SDS011;11573;51.334;3.244;2023-05-19T00:55:59;20.38;;;9.10;;
22812;SDS011;11573;51.334;3.244;2023-05-19T00:58:27;27.48;;;10.07;;
22812;SDS011;11573;51.334;3.244;2023-05-19T01:00:57;18.90;;;9.15;;
22812;SDS011;11573;51.334;3.244;2023-05-19T01:03:33;22.00;;;9.57;;
22812;SDS011;11573;51.334;3.244;2023-05-19T01:06:02;24.17;;;10.10;;
22812;SDS011;11573;51.334;3.244;2023-05-19T01:08:33;23.50;;;10.60;;
22812;SDS011;11573;51.334;3.244;2023-05-19T01:11:02;21.92;;;9.68;;
22812;SDS011;11573;51.334;3.244;2023-05-19T01:13:30;23.40;;;10.82;;
22812;SDS011;11573;51.334;3.244;2023-05-19T01:16:06;18.00;;;10.60;;
22812;SDS011;11573;51.334;3.244;2023-05-19T01:18:51;25.75;;;11.88;;
22812;SDS011;11573;51.334;3.244;2023-05-19T01:32:39;27.30;;;14.40;;
22812;SDS011;11573;51.334;3.244;2023-05-19T01:35:08;31.63;;;13.30;;
22812;SDS011;11573;51.334;3.244;2023-05-19T01:37:36;27.27;;;15.82;;
22812;SDS011;11573;51.334;3.244;2023-05-19T01:40:08;27.90;;;14.52;;
22812;SDS011;11573;51.334;3.244;2023-05-19T01:42:39;22.40;;;15.05;;
22812;SDS011;11573;51.334;3.244;2023-05-19T01:45:06;25.67;;;15.27;;
22812;SDS011;11573;51.334;3.244;2023-05-19T01:47:39;32.95;;;16.05;;
22812;SDS011;11573;51.334;3.244;2023-05-19T01:50:08;34.83;;;17.23;;
22812;SDS011;11573;51.334;3.244;2023-05-19T01:52:36;33.67;;;16.50;;
22812;SDS011;11573;51.334;3.244;2023-05-19T01:55:03;37.47;;;16.70;;
22812;SDS011;11573;51.334;3.244;2023-05-19T01:57:33;28.67;;;15.93;;
22812;SDS011;11573;51.334;3.244;2023-05-19T02:03:13;33.58;;;16.50;;
22812;SDS011;11573;51.334;3.244;2023-05-19T02:09:03;31.92;;;18.10;;
22812;SDS011;11573;51.334;3.244;2023-05-19T02:11:36;34.45;;;17.65;;
22812;SDS011;11573;51.334;3.244;2023-05-19T02:14:53;33.40;;;18.02;;
22812;SDS011;11573;51.334;3.244;2023-05-19T02:17:05;34.30;;;17.80;;
22812;SDS011;11573;51.334;3.244;2023-05-19T02:19:36;35.47;;;17.58;;
22812;SDS011;11573;51.334;3.244;2023-05-19T02:22:04;31.00;;;17.40;;
22812;SDS011;11573;51.334;3.244;2023-05-19T02:24:32;29.52;;;16.65;;
22812;SDS011;11573;51.334;3.244;2023-05-19T02:26:59;29.23;;;16.05;;
22812;SDS011;11573;51.334;3.244;2023-05-19T02:29:26;30.48;;;16.45;;
22812;SDS011;11573;51.334;3.244;2023-05-19T02:31:53;29.45;;;16.27;;
22812;SDS011;11573;51.334;3.244;2023-05-19T02:34:20;30.60;;;15.50;;
22812;SDS011;11573;51.334;3.244;2023-05-19T02:36:47;32.15;;;15.90;;
22812;SDS011;11573;51.334;3.244;2023-05-19T02:39:17;31.77;;;15.75;;
22812;SDS011;11573;51.334;3.244;2023-05-19T02:41:45;29.73;;;16.20;;
22812;SDS011;11573;51.334;3.244;2023-05-19T02:44:12;32.50;;;15.57;;
22812;SDS011;11573;51.334;3.244;2023-05-19T02:46:39;29.20;;;16.85;;
22812;SDS011;11573;51.334;3.244;2023-05-19T02:49:06;31.20;;;15.18;;
22812;SDS011;11573;51.334;3.244;2023-05-19T02:51:33;32.45;;;16.48;;
22812;SDS011;11573;51.334;3.244;2023-05-19T02:54:00;30.47;;;16.77;;
22812;SDS011;11573;51.334;3.244;2023-05-19T02:56:27;23.00;;;15.05;;
22812;SDS011;11573;51.334;3.244;2023-05-19T02:58:54;31.27;;;15.98;;
22812;SDS011;11573;51.334;3.244;2023-05-19T03:01:21;24.58;;;14.55;;
22812;SDS011;11573;51.334;3.244;2023-05-19T03:03:48;31.92;;;15.68;;
22812;SDS011;11573;51.334;3.244;2023-05-19T03:06:15;30.08;;;15.57;;
22812;SDS011;11573;51.334;3.244;2023-05-19T03:08:43;32.80;;;14.48;;
22812;SDS011;11573;51.334;3.244;2023-05-19T03:11:10;27.00;;;13.63;;
22812;SDS011;11573;51.334;3.244;2023-05-19T03:13:37;28.90;;;13.23;;
22812;SDS011;11573;51.334;3.244;2023-05-19T03:16:04;24.27;;;13.05;;
22812;SDS011;11573;51.334;3.244;2023-05-19T03:18:33;20.45;;;12.18;;
22812;SDS011;11573;51.334;3.244;2023-05-19T03:21:01;20.38;;;12.40;;
22812;SDS011;11573;51.334;3.244;2023-05-19T03:23:28;18.65;;;11.75;;
22812;SDS011;11573;51.334;3.244;2023-05-19T03:25:55;24.55;;;12.18;;
22812;SDS011;11573;51.334;3.244;2023-05-19T03:28:22;22.27;;;11.45;;
22812;SDS011;11573;51.334;3.244;2023-05-19T03:30:49;28.52;;;12.10;;
22812;SDS011;11573;51.334;3.244;2023-05-19T03:33:19;24.70;;;11.73;;
22812;SDS011;11573;51.334;3.244;2023-05-19T03:35:47;22.10;;;11.60;;
22812;SDS011;11573;51.334;3.244;2023-05-19T03:38:15;20.98;;;12.27;;
22812;SDS011;11573;51.334;3.244;2023-05-19T03:40:49;26.77;;;12.10;;
22812;SDS011;11573;51.334;3.244;2023-05-19T03:43:16;27.10;;;11.82;;
22812;SDS011;11573;51.334;3.244;2023-05-19T03:45:48;23.83;;;11.35;;
22812;SDS011;11573;51.334;3.244;2023-05-19T03:48:41;25.25;;;11.02;;
22812;SDS011;11573;51.334;3.244;2023-05-19T03:51:31;20.92;;;10.18;;
22812;SDS011;11573;51.334;3.244;2023-05-19T03:54:10;19.38;;;10.32;;
22812;SDS011;11573;51.334;3.244;2023-05-19T03:56:38;24.42;;;10.77;;
22812;SDS011;11573;51.334;3.244;2023-05-19T03:59:07;20.67;;;10.07;;
22812;SDS011;11573;51.334;3.244;2023-05-19T04:01:38;25.90;;;9.30;;
22812;SDS011;11573;51.334;3.244;2023-05-19T04:04:05;18.88;;;9.75;;
22812;SDS011;11573;51.334;3.244;2023-05-19T04:06:32;19.30;;;9.30;;
22812;SDS011;11573;51.334;3.244;2023-05-19T04:09:00;21.02;;;8.80;;
22812;SDS011;11573;51.334;3.244;2023-05-19T04:11:29;15.57;;;8.80;;
22812;SDS011;11573;51.334;3.244;2023-05-19T04:13:56;18.33;;;9.00;;
22812;SDS011;11573;51.334;3.244;2023-05-19T04:16:23;20.15;;;8.57;;
22812;SDS011;11573;51.334;3.244;2023-05-19T04:18:50;17.65;;;9.02;;
22812;SDS011;11573;51.334;3.244;2023-05-19T04:21:17;18.20;;;8.88;;
22812;SDS011;11573;51.334;3.244;2023-05-19T04:23:47;17.13;;;8.50;;
22812;SDS011;11573;51.334;3.244;2023-05-19T04:26:14;17.17;;;8.25;;
22812;SDS011;11573;51.334;3.244;2023-05-19T04:28:41;18.98;;;7.82;;
22812;SDS011;11573;51.334;3.244;2023-05-19T04:31:10;18.35;;;7.93;;
22812;SDS011;11573;51.334;3.244;2023-05-19T04:33:38;15.23;;;8.05;;
22812;SDS011;11573;51.334;3.244;2023-05-19T04:36:06;16.90;;;7.85;;
22812;SDS011;11573;51.334;3.244;2023-05-19T04:38:39;19.88;;;8.75;;
22812;SDS011;11573;51.334;3.244;2023-05-19T04:41:08;22.17;;;9.27;;
22812;SDS011;11573;51.334;3.244;2023-05-19T04:43:35;15.50;;;8.77;;
22812;SDS011;11573;51.334;3.244;2023-05-19T04:46:07;15.10;;;9.05;;
22812;SDS011;11573;51.334;3.244;2023-05-19T04:48:42;15.20;;;9.05;;
22812;SDS011;11573;51.334;3.244;2023-05-19T04:51:09;15.40;;;9.00;;
22812;SDS011;11573;51.334;3.244;2023-05-19T04:53:40;18.30;;;10.23;;
22812;SDS011;11573;51.334;3.244;2023-05-19T04:56:09;20.63;;;11.02;;
22812;SDS011;11573;51.334;3.244;2023-05-19T04:58:40;19.58;;;10.88;;
22812;SDS011;11573;51.334;3.244;2023-05-19T05:01:09;16.30;;;10.52;;
22812;SDS011;11573;51.334;3.244;2023-05-19T05:03:41;23.23;;;11.32;;
22812;SDS011;11573;51.334;3.244;2023-05-19T05:06:09;20.13;;;11.23;;
22812;SDS011;11573;51.334;3.244;2023-05-19T05:08:37;23.00;;;11.63;;
22812;SDS011;11573;51.334;3.244;2023-05-19T05:11:06;24.05;;;11.38;;
22812;SDS011;11573;51.334;3.244;2023-05-19T05:13:33;22.05;;;10.48;;
22812;SDS011;11573;51.334;3.244;2023-05-19T05:16:00;19.40;;;10.25;;
22812;SDS011;11573;51.334;3.244;2023-05-19T05:18:32;18.67;;;10.10;;
22812;SDS011;11573;51.334;3.244;2023-05-19T05:20:59;19.35;;;9.77;;
22812;SDS011;11573;51.334;3.244;2023-05-19T05:23:27;15.23;;;9.25;;
22812;SDS011;11573;51.334;3.244;2023-05-19T05:25:55;18.92;;;9.35;;
22812;SDS011;11573;51.334;3.244;2023-05-19T05:28:22;15.60;;;8.82;;
22812;SDS011;11573;51.334;3.244;2023-05-19T05:30:49;21.80;;;9.13;;
22812;SDS011;11573;51.334;3.244;2023-05-19T05:33:16;14.05;;;8.00;;
22812;SDS011;11573;51.334;3.244;2023-05-19T05:35:44;13.10;;;8.57;;
22812;SDS011;11573;51.334;3.244;2023-05-19T05:38:12;18.55;;;8.75;;
22812;SDS011;11573;51.334;3.244;2023-05-19T05:40:40;16.08;;;8.82;;
22812;SDS011;11573;51.334;3.244;2023-05-19T05:43:08;22.27;;;9.15;;
22812;SDS011;11573;51.334;3.244;2023-05-19T05:45:41;20.10;;;9.60;;
22812;SDS011;11573;51.334;3.244;2023-05-19T05:48:08;17.98;;;9.05;;
22812;SDS011;11573;51.334;3.244;2023-05-19T05:50:37;17.88;;;9.45;;
22812;SDS011;11573;51.334;3.244;2023-05-19T05:53:04;18.45;;;9.65;;
22812;SDS011;11573;51.334;3.244;2023-05-19T05:55:35;15.07;;;8.95;;
22812;SDS011;11573;51.334;3.244;2023-05-19T05:58:03;16.70;;;9.45;;
22812;SDS011;11573;51.334;3.244;2023-05-19T06:00:31;18.35;;;9.82;;
22812;SDS011;11573;51.334;3.244;2023-05-19T06:02:58;18.83;;;9.38;;
22812;SDS011;11573;51.334;3.244;2023-05-19T06:05:26;20.60;;;9.73;;
22812;SDS011;11573;51.334;3.244;2023-05-19T06:07:53;18.65;;;9.70;;
22812;SDS011;11573;51.334;3.244;2023-05-19T06:10:24;17.65;;;9.32;;
22812;SDS011;11573;51.334;3.244;2023-05-19T06:12:53;26.52;;;10.25;;
22812;SDS011;11573;51.334;3.244;2023-05-19T06:15:21;20.13;;;8.70;;
22812;SDS011;11573;51.334;3.244;2023-05-19T06:18:02;16.23;;;9.23;;
22812;SDS011;11573;51.334;3.244;2023-05-19T06:20:29;17.15;;;9.00;;
22812;SDS011;11573;51.334;3.244;2023-05-19T06:22:56;14.07;;;8.98;;
22812;SDS011;11573;51.334;3.244;2023-05-19T06:25:25;25.63;;;9.18;;
22812;SDS011;11573;51.334;3.244;2023-05-19T06:27:53;16.05;;;9.20;;
22812;SDS011;11573;51.334;3.244;2023-05-19T06:30:21;13.07;;;8.85;;
22812;SDS011;11573;51.334;3.244;2023-05-19T06:33:01;15.80;;;8.65;;
22812;SDS011;11573;51.334;3.244;2023-05-19T06:35:29;16.88;;;8.13;;
22812;SDS011;11573;51.334;3.244;2023-05-19T06:37:57;17.92;;;7.40;;
22812;SDS011;11573;51.334;3.244;2023-05-19T06:40:24;20.77;;;8.98;;
22812;SDS011;11573;51.334;3.244;2023-05-19T06:42:52;16.85;;;8.73;;
22812;SDS011;11573;51.334;3.244;2023-05-19T06:45:39;21.73;;;8.65;;
22812;SDS011;11573;51.334;3.244;2023-05-19T06:48:06;15.85;;;7.25;;
22812;SDS011;11573;51.334;3.244;2023-05-19T06:50:33;15.27;;;7.88;;
22812;SDS011;11573;51.334;3.244;2023-05-19T06:53:01;17.27;;;7.82;;
22812;SDS011;11573;51.334;3.244;2023-05-19T06:55:28;18.13;;;8.02;;
22812;SDS011;11573;51.334;3.244;2023-05-19T06:57:56;14.48;;;8.10;;
22812;SDS011;11573;51.334;3.244;2023-05-19T07:00:23;11.32;;;7.80;;
22812;SDS011;11573;51.334;3.244;2023-05-19T07:02:51;12.73;;;8.00;;
22812;SDS011;11573;51.334;3.244;2023-05-19T07:05:19;18.77;;;8.20;;
22812;SDS011;11573;51.334;3.244;2023-05-19T07:07:51;14.00;;;7.55;;
22812;SDS011;11573;51.334;3.244;2023-05-19T07:10:22;14.52;;;9.07;;
22812;SDS011;11573;51.334;3.244;2023-05-19T07:12:50;18.77;;;8.60;;
22812;SDS011;11573;51.334;3.244;2023-05-19T07:15:20;15.18;;;8.70;;
22812;SDS011;11573;51.334;3.244;2023-05-19T07:17:47;18.55;;;9.15;;
22812;SDS011;11573;51.334;3.244;2023-05-19T07:20:14;14.20;;;8.65;;
22812;SDS011;11573;51.334;3.244;2023-05-19T07:22:41;14.05;;;8.63;;
22812;SDS011;11573;51.334;3.244;2023-05-19T07:25:08;20.73;;;9.05;;
22812;SDS011;11573;51.334;3.244;2023-05-19T07:27:35;13.55;;;8.57;;
22812;SDS011;11573;51.334;3.244;2023-05-19T07:30:02;20.35;;;8.32;;
22812;SDS011;11573;51.334;3.244;2023-05-19T07:32:30;15.95;;;8.55;;
22812;SDS011;11573;51.334;3.244;2023-05-19T07:34:57;16.58;;;9.10;;
22812;SDS011;11573;51.334;3.244;2023-05-19T07:37:24;16.58;;;9.57;;
22812;SDS011;11573;51.334;3.244;2023-05-19T07:39:51;19.55;;;8.48;;
22812;SDS011;11573;51.334;3.244;2023-05-19T07:42:18;15.93;;;8.10;;
22812;SDS011;11573;51.334;3.244;2023-05-19T07:44:45;19.50;;;9.40;;
22812;SDS011;11573;51.334;3.244;2023-05-19T07:47:12;11.80;;;7.78;;
22812;SDS011;11573;51.334;3.244;2023-05-19T07:49:39;15.13;;;8.88;;
22812;SDS011;11573;51.334;3.244;2023-05-19T07:52:06;15.85;;;8.85;;
22812;SDS011;11573;51.334;3.244;2023-05-19T07:54:33;15.07;;;9.30;;
22812;SDS011;11573;51.334;3.244;2023-05-19T07:57:00;17.92;;;9.23;;
22812;SDS011;11573;51.334;3.244;2023-05-19T07:59:26;17.17;;;9.30;;
22812;SDS011;11573;51.334;3.244;2023-05-19T08:01:53;15.05;;;8.43;;
22812;SDS011;11573;51.334;3.244;2023-05-19T08:04:20;16.02;;;9.00;;
22812;SDS011;11573;51.334;3.244;2023-05-19T08:06:48;14.85;;;8.63;;
22812;SDS011;11573;51.334;3.244;2023-05-19T08:09:14;17.67;;;9.18;;
22812;SDS011;11573;51.334;3.244;2023-05-19T08:11:41;18.27;;;9.93;;
22812;SDS011;11573;51.334;3.244;2023-05-19T08:14:10;12.10;;;8.50;;
22812;SDS011;11573;51.334;3.244;2023-05-19T08:16:36;19.83;;;9.35;;
22812;SDS011;11573;51.334;3.244;2023-05-19T08:19:05;16.35;;;9.32;;
22812;SDS011;11573;51.334;3.244;2023-05-19T08:21:33;16.83;;;10.05;;
22812;SDS011;11573;51.334;3.244;2023-05-19T08:24:00;18.67;;;10.25;;
22812;SDS011;11573;51.334;3.244;2023-05-19T08:26:27;23.45;;;10.48;;
22812;SDS011;11573;51.334;3.244;2023-05-19T08:28:54;17.23;;;9.63;;
22812;SDS011;11573;51.334;3.244;2023-05-19T08:31:21;16.40;;;9.65;;
22812;SDS011;11573;51.334;3.244;2023-05-19T08:33:50;21.17;;;10.32;;
22812;SDS011;11573;51.334;3.244;2023-05-19T08:36:17;23.05;;;10.55;;
22812;SDS011;11573;51.334;3.244;2023-05-19T08:38:44;16.45;;;10.10;;
22812;SDS011;11573;51.334;3.244;2023-05-19T08:41:11;15.55;;;9.50;;
22812;SDS011;11573;51.334;3.244;2023-05-19T08:43:38;17.88;;;9.88;;
22812;SDS011;11573;51.334;3.244;2023-05-19T08:46:05;17.10;;;10.60;;
22812;SDS011;11573;51.334;3.244;2023-05-19T08:48:33;14.75;;;10.48;;
22812;SDS011;11573;51.334;3.244;2023-05-19T08:51:13;19.95;;;10.25;;
22812;SDS011;11573;51.334;3.244;2023-05-19T08:53:49;19.02;;;10.02;;
22812;SDS011;11573;51.334;3.244;2023-05-19T08:56:20;17.77;;;10.40;;
22812;SDS011;11573;51.334;3.244;2023-05-19T08:58:49;20.65;;;10.10;;
22812;SDS011;11573;51.334;3.244;2023-05-19T09:01:17;17.40;;;10.20;;
22812;SDS011;11573;51.334;3.244;2023-05-19T09:03:46;20.10;;;9.85;;
22812;SDS011;11573;51.334;3.244;2023-05-19T09:06:15;15.25;;;9.48;;
22812;SDS011;11573;51.334;3.244;2023-05-19T09:08:42;15.90;;;9.00;;
22812;SDS011;11573;51.334;3.244;2023-05-19T09:11:10;18.00;;;9.45;;
22812;SDS011;11573;51.334;3.244;2023-05-19T09:13:38;18.27;;;9.65;;
22812;SDS011;11573;51.334;3.244;2023-05-19T09:16:05;19.30;;;9.25;;
22812;SDS011;11573;51.334;3.244;2023-05-19T09:18:33;19.83;;;9.15;;
22812;SDS011;11573;51.334;3.244;2023-05-19T09:21:04;13.45;;;7.75;;
22812;SDS011;11573;51.334;3.244;2023-05-19T09:23:32;18.33;;;8.68;;
22812;SDS011;11573;51.334;3.244;2023-05-19T09:26:03;16.13;;;8.38;;
22812;SDS011;11573;51.334;3.244;2023-05-19T09:28:34;20.10;;;8.50;;
22812;SDS011;11573;51.334;3.244;2023-05-19T09:31:04;14.50;;;7.57;;
22812;SDS011;11573;51.334;3.244;2023-05-19T09:33:36;15.52;;;8.55;;
22812;SDS011;11573;51.334;3.244;2023-05-19T09:36:08;15.77;;;7.80;;
22812;SDS011;11573;51.334;3.244;2023-05-19T09:38:37;14.82;;;7.80;;
22812;SDS011;11573;51.334;3.244;2023-05-19T09:41:06;14.05;;;8.00;;
22812;SDS011;11573;51.334;3.244;2023-05-19T09:43:34;13.88;;;7.68;;
22812;SDS011;11573;51.334;3.244;2023-05-19T09:46:08;14.07;;;7.45;;
22812;SDS011;11573;51.334;3.244;2023-05-19T09:48:40;14.73;;;7.60;;
22812;SDS011;11573;51.334;3.244;2023-05-19T09:51:07;16.58;;;8.23;;
22812;SDS011;11573;51.334;3.244;2023-05-19T09:53:37;19.92;;;8.63;;
22812;SDS011;11573;51.334;3.244;2023-05-19T09:56:05;21.40;;;10.20;;
22812;SDS011;11573;51.334;3.244;2023-05-19T09:58:35;21.85;;;10.25;;
22812;SDS011;11573;51.334;3.244;2023-05-19T10:01:03;20.83;;;11.00;;
22812;SDS011;11573;51.334;3.244;2023-05-19T10:03:32;21.20;;;11.27;;
22812;SDS011;11573;51.334;3.244;2023-05-19T10:06:05;21.40;;;11.13;;
22812;SDS011;11573;51.334;3.244;2023-05-19T10:08:34;26.73;;;11.93;;
22812;SDS011;11573;51.334;3.244;2023-05-19T10:11:03;20.88;;;11.35;;
22812;SDS011;11573;51.334;3.244;2023-05-19T10:13:30;18.05;;;10.13;;
22812;SDS011;11573;51.334;3.244;2023-05-19T10:16:00;20.10;;;11.02;;
22812;SDS011;11573;51.334;3.244;2023-05-19T10:18:28;23.02;;;10.43;;
22812;SDS011;11573;51.334;3.244;2023-05-19T10:20:58;19.00;;;10.77;;
22812;SDS011;11573;51.334;3.244;2023-05-19T10:23:26;20.88;;;9.55;;
22812;SDS011;11573;51.334;3.244;2023-05-19T10:25:55;21.05;;;9.15;;
22812;SDS011;11573;51.334;3.244;2023-05-19T10:28:25;21.83;;;11.00;;
22812;SDS011;11573;51.334;3.244;2023-05-19T10:31:05;17.58;;;9.48;;
22812;SDS011;11573;51.334;3.244;2023-05-19T10:33:39;20.23;;;9.98;;
22812;SDS011;11573;51.334;3.244;2023-05-19T10:36:25;22.65;;;10.30;;
22812;SDS011;11573;51.334;3.244;2023-05-19T10:39:10;16.40;;;9.07;;
22812;SDS011;11573;51.334;3.244;2023-05-19T10:41:46;22.65;;;10.25;;
22812;SDS011;11573;51.334;3.244;2023-05-19T10:47:28;19.30;;;9.25;;
22812;SDS011;11573;51.334;3.244;2023-05-19T10:49:55;18.17;;;9.50;;
22812;SDS011;11573;51.334;3.244;2023-05-19T10:52:25;22.08;;;9.02;;
22812;SDS011;11573;51.334;3.244;2023-05-19T10:54:54;20.08;;;9.52;;
22812;SDS011;11573;51.334;3.244;2023-05-19T10:57:26;21.98;;;9.05;;
22812;SDS011;11573;51.334;3.244;2023-05-19T10:59:54;19.33;;;8.77;;
22812;SDS011;11573;51.334;3.244;2023-05-19T11:02:41;18.77;;;9.30;;
22812;SDS011;11573;51.334;3.244;2023-05-19T11:05:13;22.63;;;9.43;;
22812;SDS011;11573;51.334;3.244;2023-05-19T11:07:43;20.30;;;9.63;;
22812;SDS011;11573;51.334;3.244;2023-05-19T11:10:22;25.15;;;9.18;;
22812;SDS011;11573;51.334;3.244;2023-05-19T11:12:50;20.23;;;9.30;;
22812;SDS011;11573;51.334;3.244;2023-05-19T11:15:17;24.02;;;9.88;;
22812;SDS011;11573;51.334;3.244;2023-05-19T11:17:51;21.02;;;9.05;;
22812;SDS011;11573;51.334;3.244;2023-05-19T11:20:23;23.63;;;8.75;;
22812;SDS011;11573;51.334;3.244;2023-05-19T11:23:04;20.88;;;8.82;;
22812;SDS011;11573;51.334;3.244;2023-05-19T11:25:43;16.90;;;8.60;;
22812;SDS011;11573;51.334;3.244;2023-05-19T11:28:10;20.00;;;9.18;;
22812;SDS011;11573;51.334;3.244;2023-05-19T11:30:41;18.80;;;7.50;;
22812;SDS011;11573;51.334;3.244;2023-05-19T11:33:10;22.77;;;8.35;;
22812;SDS011;11573;51.334;3.244;2023-05-19T11:35:38;18.88;;;7.57;;
22812;SDS011;11573;51.334;3.244;2023-05-19T11:38:06;24.55;;;7.63;;
22812;SDS011;11573;51.334;3.244;2023-05-19T11:40:33;23.80;;;7.72;;
22812;SDS011;11573;51.334;3.244;2023-05-19T11:43:00;17.77;;;7.72;;
22812;SDS011;11573;51.334;3.244;2023-05-19T11:45:27;15.32;;;7.75;;
22812;SDS011;11573;51.334;3.244;2023-05-19T11:47:57;19.95;;;7.22;;
22812;SDS011;11573;51.334;3.244;2023-05-19T11:50:29;24.00;;;8.65;;
22812;SDS011;11573;51.334;3.244;2023-05-19T11:53:02;18.08;;;8.02;;
22812;SDS011;11573;51.334;3.244;2023-05-19T11:55:29;24.92;;;8.60;;
22812;SDS011;11573;51.334;3.244;2023-05-19T11:58:00;19.85;;;9.32;;
22812;SDS011;11573;51.334;3.244;2023-05-19T12:00:34;24.98;;;9.15;;
22812;SDS011;11573;51.334;3.244;2023-05-19T12:03:03;20.20;;;8.50;;
22812;SDS011;11573;51.334;3.244;2023-05-19T12:05:30;19.98;;;7.68;;
22812;SDS011;11573;51.334;3.244;2023-05-19T12:08:03;19.88;;;8.13;;
22812;SDS011;11573;51.334;3.244;2023-05-19T12:10:31;16.80;;;8.75;;
22812;SDS011;11573;51.334;3.244;2023-05-19T12:13:01;20.30;;;8.60;;
22812;SDS011;11573;51.334;3.244;2023-05-19T12:15:29;22.08;;;8.52;;
22812;SDS011;11573;51.334;3.244;2023-05-19T12:17:59;23.13;;;8.48;;
22812;SDS011;11573;51.334;3.244;2023-05-19T12:20:27;21.80;;;8.43;;
22812;SDS011;11573;51.334;3.244;2023-05-19T12:22:57;20.60;;;8.55;;
22812;SDS011;11573;51.334;3.244;2023-05-19T12:25:26;23.52;;;9.00;;
22812;SDS011;11573;51.334;3.244;2023-05-19T12:28:00;19.83;;;8.48;;
22812;SDS011;11573;51.334;3.244;2023-05-19T12:30:31;20.23;;;8.10;;
22812;SDS011;11573;51.334;3.244;2023-05-19T12:33:00;23.58;;;7.57;;
22812;SDS011;11573;51.334;3.244;2023-05-19T12:35:29;21.67;;;7.80;;
22812;SDS011;11573;51.334;3.244;2023-05-19T12:38:01;15.18;;;7.28;;
22812;SDS011;11573;51.334;3.244;2023-05-19T12:40:34;26.17;;;8.43;;
22812;SDS011;11573;51.334;3.244;2023-05-19T12:43:03;18.52;;;7.85;;
22812;SDS011;11573;51.334;3.244;2023-05-19T12:45:34;22.48;;;8.27;;
22812;SDS011;11573;51.334;3.244;2023-05-19T12:48:12;25.50;;;8.55;;
22812;SDS011;11573;51.334;3.244;2023-05-19T12:50:42;23.88;;;7.70;;
22812;SDS011;11573;51.334;3.244;2023-05-19T12:53:16;23.77;;;7.80;;
22812;SDS011;11573;51.334;3.244;2023-05-19T12:55:43;17.38;;;7.45;;
22812;SDS011;11573;51.334;3.244;2023-05-19T12:58:11;22.92;;;7.97;;
22812;SDS011;11573;51.334;3.244;2023-05-19T13:00:39;27.17;;;7.75;;
22812;SDS011;11573;51.334;3.244;2023-05-19T13:03:14;21.73;;;6.75;;
22812;SDS011;11573;51.334;3.244;2023-05-19T13:05:43;20.20;;;7.30;;
22812;SDS011;11573;51.334;3.244;2023-05-19T13:08:13;24.25;;;6.80;;
22812;SDS011;11573;51.334;3.244;2023-05-19T13:10:45;21.73;;;6.82;;
22812;SDS011;11573;51.334;3.244;2023-05-19T13:13:14;20.17;;;6.78;;
22812;SDS011;11573;51.334;3.244;2023-05-19T13:15:42;16.95;;;6.43;;
22812;SDS011;11573;51.334;3.244;2023-05-19T13:18:11;14.23;;;6.07;;
22812;SDS011;11573;51.334;3.244;2023-05-19T13:20:39;18.52;;;6.32;;
22812;SDS011;11573;51.334;3.244;2023-05-19T13:23:11;24.02;;;7.45;;
22812;SDS011;11573;51.334;3.244;2023-05-19T13:25:39;25.10;;;6.65;;
22812;SDS011;11573;51.334;3.244;2023-05-19T13:28:06;22.83;;;7.13;;
22812;SDS011;11573;51.334;3.244;2023-05-19T13:30:34;23.75;;;6.47;;
22812;SDS011;11573;51.334;3.244;2023-05-19T13:33:03;18.58;;;6.75;;
22812;SDS011;11573;51.334;3.244;2023-05-19T13:35:30;19.70;;;6.35;;
22812;SDS011;11573;51.334;3.244;2023-05-19T13:38:03;16.70;;;6.20;;
22812;SDS011;11573;51.334;3.244;2023-05-19T13:40:37;19.85;;;6.63;;
22812;SDS011;11573;51.334;3.244;2023-05-19T13:43:05;21.17;;;6.72;;
22812;SDS011;11573;51.334;3.244;2023-05-19T13:45:33;18.15;;;5.85;;
22812;SDS011;11573;51.334;3.244;2023-05-19T13:48:00;17.88;;;6.68;;
22812;SDS011;11573;51.334;3.244;2023-05-19T13:50:27;24.75;;;6.80;;
22812;SDS011;11573;51.334;3.244;2023-05-19T13:52:54;20.83;;;7.38;;
22812;SDS011;11573;51.334;3.244;2023-05-19T13:55:21;23.83;;;7.53;;
22812;SDS011;11573;51.334;3.244;2023-05-19T13:57:48;18.77;;;7.22;;
22812;SDS011;11573;51.334;3.244;2023-05-19T14:00:16;18.83;;;6.68;;
22812;SDS011;11573;51.334;3.244;2023-05-19T14:02:44;21.45;;;7.28;;
22812;SDS011;11573;51.334;3.244;2023-05-19T14:05:11;24.55;;;7.18;;
22812;SDS011;11573;51.334;3.244;2023-05-19T14:07:38;19.80;;;7.15;;
22812;SDS011;11573;51.334;3.244;2023-05-19T14:10:06;26.25;;;8.07;;
22812;SDS011;11573;51.334;3.244;2023-05-19T14:12:34;25.20;;;8.32;;
22812;SDS011;11573;51.334;3.244;2023-05-19T14:15:21;20.90;;;7.68;;
22812;SDS011;11573;51.334;3.244;2023-05-19T14:17:48;25.27;;;9.13;;
22812;SDS011;11573;51.334;3.244;2023-05-19T14:20:16;24.88;;;8.05;;
22812;SDS011;11573;51.334;3.244;2023-05-19T14:22:42;21.27;;;8.77;;
22812;SDS011;11573;51.334;3.244;2023-05-19T14:25:10;23.02;;;7.90;;
22812;SDS011;11573;51.334;3.244;2023-05-19T14:27:37;27.13;;;8.80;;
22812;SDS011;11573;51.334;3.244;2023-05-19T14:30:05;26.77;;;8.52;;
22812;SDS011;11573;51.334;3.244;2023-05-19T14:32:33;21.75;;;8.65;;
22812;SDS011;11573;51.334;3.244;2023-05-19T14:35:00;22.63;;;8.27;;
22812;SDS011;11573;51.334;3.244;2023-05-19T14:37:27;22.30;;;9.02;;
22812;SDS011;11573;51.334;3.244;2023-05-19T14:39:55;29.80;;;10.10;;
22812;SDS011;11573;51.334;3.244;2023-05-19T14:42:23;20.77;;;10.43;;
22812;SDS011;11573;51.334;3.244;2023-05-19T14:44:50;22.70;;;9.73;;
22812;SDS011;11573;51.334;3.244;2023-05-19T14:47:17;28.95;;;9.90;;
22812;SDS011;11573;51.334;3.244;2023-05-19T14:49:44;23.65;;;9.70;;
22812;SDS011;11573;51.334;3.244;2023-05-19T14:52:11;26.40;;;10.00;;
22812;SDS011;11573;51.334;3.244;2023-05-19T14:54:38;24.15;;;9.68;;
22812;SDS011;11573;51.334;3.244;2023-05-19T14:57:05;24.17;;;9.48;;
22812;SDS011;11573;51.334;3.244;2023-05-19T14:59:35;21.48;;;8.55;;
22812;SDS011;11573;51.334;3.244;2023-05-19T15:02:03;25.17;;;9.13;;
22812;SDS011;11573;51.334;3.244;2023-05-19T15:04:30;33.72;;;11.07;;